Rechercher aéroport 
image banner adimage banner adimage banner ad
image banner ad

7CL4 - Mcmwtc

Situé à Bridgeport, United States

ICAO - 7CL4, IATA -

Données fournies par Airmate  

Information générale

Coordonnées: N38°21'20" W119°31'8"
Élévation : 6779 feet MSL.
Variation magnétique : 15° East
Voir autres Aéroports à California

Données opérationnelles

Special qualification required
Heure actuelle UTC:
Heure actuelle locale:
Météo à : KTVL - Lake Tahoe ( 73 km )
METAR: KTVL 251553Z AUTO 00000KT 10SM OVC041 17/07 A3027 RMK AO2 SLP184 T01670072
TAF: KTVL 251120Z 2512/2612 18003KT P6SM SCT200 FM251600 03006KT 5SM FU HZ BKN035 FM252300 19007KT P6SM SCT090 SCT200 FM260400 VRB03KT P6SM SCT100 BKN200
Voir NOTAMs / SUP AIP / TFR affectant cet aéroport [VIEW]
Fréquences de communication: [VIEW]

Pistes:

Coordonnées de l'aéroport

Adresse: Bridgeport United States

Vue satellite de 7CL4